Time;durP1;ratioP1;P1;durP2;ratioP2;P2;SDS_P1;SDS_P2;PMS_P1;PMS_P2;Temp;Humidity;BMP_temperature;BMP_pressure;BME280_temperature;BME280_humidity;BME280_pressure;Samples;Min_cycle;Max_cycle;Signal;HPM_P1;HPM_P2
2023/09/19 00:02:23;;;;;;;;;;;16.00;99.90;;;;;;4997602;28;20402;-42
2023/09/19 00:04:49;;;;;;;;;;;16.00;99.90;;;;;;4997598;28;19922;-42
2023/09/19 00:07:16;;;;;;;;;;;16.00;99.90;;;;;;4997527;28;20024;-43
2023/09/19 00:09:44;;;;;;;;;;;15.90;99.90;;;;;;4997965;28;19921;-42
2023/09/19 00:12:09;;;;;;;;;;;15.90;99.90;;;;;;4997805;28;19922;-42
2023/09/19 00:14:35;;;;;;;;;;;15.90;99.90;;;;;;4997368;28;19921;-42
2023/09/19 00:17:07;;;;;;;;;;;15.90;99.90;;;;;;4997332;28;20014;-43
2023/09/19 00:19:32;;;;;;;;;;;15.80;99.90;;;;;;4997385;28;19925;-42
2023/09/19 00:21:58;;;;;;;;;;;15.80;99.90;;;;;;4996981;28;19922;-42
2023/09/19 00:24:24;;;;;;;;;;;15.80;99.90;;;;;;5012632;28;19979;-42
2023/09/19 00:26:49;;;;;;;;;;;15.70;99.90;;;;;;4997566;28;19922;-43
2023/09/19 00:29:16;;;;;;;;;;;15.70;99.90;;;;;;4979618;28;20452;-43
2023/09/19 00:31:45;;;;;;;;;;;15.70;99.90;;;;;;4980130;28;19921;-43
2023/09/19 00:34:10;;;;;;;;;;;15.70;99.90;;;;;;4996994;28;20016;-42
2023/09/19 00:36:38;;;;;;;;;;;15.70;99.90;;;;;;4996915;28;20000;-42
2023/09/19 00:39:05;;;;;;;;;;;15.70;99.90;;;;;;4996919;28;19921;-42
2023/09/19 00:41:35;;;;;;;;;;;15.60;99.90;;;;;;4996917;28;19922;-43
2023/09/19 00:44:02;;;;;;;;;;;15.60;99.90;;;;;;4996882;28;20349;-42
2023/09/19 00:46:28;;;;;;;;;;;15.60;99.90;;;;;;4996196;28;19922;-42
2023/09/19 00:48:53;;;;;;;;;;;15.60;99.90;;;;;;4996480;28;20417;-43
2023/09/19 00:51:20;;;;;;;;;;;15.60;99.90;;;;;;4996427;28;19953;-42
2023/09/19 00:53:46;;;;;;;;;;;15.60;99.90;;;;;;4979498;28;20374;-42
2023/09/19 00:56:12;;;;;;;;;;;15.50;99.90;;;;;;4996559;28;19926;-42
2023/09/19 00:58:38;;;;;;;;;;;15.50;99.90;;;;;;4996372;28;19922;-42
2023/09/19 01:01:06;;;;;;;;;;;15.50;99.90;;;;;;4996555;28;19922;-42
2023/09/19 01:03:33;;;;;;;;;;;15.50;99.90;;;;;;4978913;28;19933;-42
2023/09/19 01:06:02;;;;;;;;;;;15.50;99.90;;;;;;4996345;28;19967;-43
2023/09/19 01:08:29;;;;;;;;;;;15.40;99.90;;;;;;4996380;28;19926;-42
2023/09/19 01:11:11;;;;;;;;;;;15.40;99.90;;;;;;4996402;28;20399;-42
2023/09/19 01:13:42;;;;;;;;;;;15.30;99.90;;;;;;4996684;28;19921;-43
2023/09/19 01:16:18;;;;;;;;;;;15.30;99.90;;;;;;4996261;28;20283;-43
2023/09/19 01:19:03;;;;;;;;;;;15.20;99.90;;;;;;4997032;28;19922;-42
2023/09/19 01:21:32;;;;;;;;;;;15.20;99.90;;;;;;4996010;28;19968;-43
2023/09/19 01:24:19;;;;;;;;;;;15.20;99.90;;;;;;4995980;28;19928;-42
2023/09/19 01:26:55;;;;;;;;;;;15.20;99.90;;;;;;4995949;28;19957;-42
2023/09/19 01:29:39;;;;;;;;;;;15.10;99.90;;;;;;4996113;28;19922;-42
2023/09/19 01:32:06;;;;;;;;;;;15.10;99.90;;;;;;4995875;28;19938;-43
2023/09/19 01:34:49;;;;;;;;;;;15.10;99.90;;;;;;4995820;28;19921;-42
2023/09/19 01:37:19;;;;;;;;;;;15.10;99.90;;;;;;4995573;28;20473;-42
2023/09/19 01:39:49;;;;;;;;;;;15.10;99.90;;;;;;4995833;28;19968;-43
2023/09/19 01:42:37;;;;;;;;;;;15.10;99.90;;;;;;4995654;28;19971;-42
2023/09/19 01:45:12;;;;;;;;;;;15.00;99.90;;;;;;4987702;28;19928;-42
2023/09/19 01:47:43;;;;;;;;;;;15.00;99.90;;;;;;4995427;28;19921;-43
2023/09/19 01:50:25;;;;;;;;;;;15.00;99.90;;;;;;4978974;28;20016;-43
2023/09/19 01:52:56;;;;;;;;;;;15.00;99.90;;;;;;4995504;28;20394;-42
2023/09/19 01:55:23;;;;;;;;;;;15.00;99.90;;;;;;4995516;28;19930;-43
2023/09/19 01:57:58;;;;;;;;;;;15.00;99.90;;;;;;4995232;28;19922;-43
2023/09/19 02:00:25;;;;;;;;;;;15.00;99.90;;;;;;4995464;28;19922;-43
2023/09/19 02:02:52;;;;;;;;;;;14.90;99.90;;;;;;4995382;28;20027;-43
2023/09/19 02:05:27;;;;;;;;;;;14.90;99.90;;;;;;4995408;28;19969;-42
2023/09/19 02:07:53;;;;;;;;;;;14.90;99.90;;;;;;4995115;28;19925;-43
2023/09/19 02:10:19;;;;;;;;;;;14.90;99.90;;;;;;4995099;28;19928;-43
2023/09/19 02:12:45;;;;;;;;;;;14.90;99.90;;;;;;4995080;28;20298;-43
2023/09/19 02:15:10;;;;;;;;;;;14.90;99.90;;;;;;4995172;28;19976;-43
2023/09/19 02:17:37;;;;;;;;;;;14.90;99.90;;;;;;4995218;28;20414;-44
2023/09/19 02:20:10;;;;;;;;;;;14.90;99.90;;;;;;4994936;28;19973;-43
2023/09/19 02:22:36;;;;;;;;;;;14.80;99.90;;;;;;4995022;28;19929;-43
2023/09/19 02:25:04;;;;;;;;;;;14.80;99.90;;;;;;4994802;28;20012;-43
2023/09/19 02:27:30;;;;;;;;;;;14.80;99.90;;;;;;4995067;28;19921;-42
2023/09/19 02:29:56;;;;;;;;;;;14.80;99.90;;;;;;4995012;28;19975;-42
2023/09/19 02:32:22;;;;;;;;;;;14.80;99.90;;;;;;4994918;28;19976;-42
2023/09/19 02:34:48;;;;;;;;;;;14.80;99.90;;;;;;4994931;28;20353;-43
2023/09/19 02:37:16;;;;;;;;;;;14.70;99.90;;;;;;4994825;28;20017;-43
2023/09/19 02:39:41;;;;;;;;;;;14.70;99.90;;;;;;4977213;28;20038;-43
2023/09/19 02:42:07;;;;;;;;;;;14.70;99.90;;;;;;4995068;28;19926;-43
2023/09/19 02:44:33;;;;;;;;;;;14.70;99.90;;;;;;5010200;28;19925;-43
2023/09/19 02:46:59;;;;;;;;;;;14.70;99.90;;;;;;4994766;28;20322;-43
2023/09/19 02:49:25;;;;;;;;;;;14.70;99.90;;;;;;4994736;28;19925;-43
2023/09/19 02:51:51;;;;;;;;;;;14.60;99.90;;;;;;4994536;28;20383;-43
2023/09/19 02:54:17;;;;;;;;;;;14.60;99.90;;;;;;4994462;28;20371;-44
2023/09/19 02:56:43;;;;;;;;;;;14.50;99.90;;;;;;4994601;28;19922;-43
2023/09/19 02:59:10;;;;;;;;;;;14.50;99.90;;;;;;4994600;28;19929;-43
2023/09/19 03:01:36;;;;;;;;;;;14.50;99.90;;;;;;4977508;28;20040;-43
2023/09/19 03:04:02;;;;;;;;;;;14.50;99.90;;;;;;4994551;28;19921;-42
2023/09/19 03:06:30;;;;;;;;;;;14.50;99.90;;;;;;4994540;28;19929;-43
2023/09/19 03:08:56;;;;;;;;;;;14.40;99.90;;;;;;4994363;28;19929;-42
2023/09/19 03:11:22;;;;;;;;;;;14.40;99.90;;;;;;4997597;28;19926;-43
2023/09/19 03:13:52;;;;;;;;;;;14.50;99.90;;;;;;4998541;28;19965;-43
2023/09/19 03:16:18;;;;;;;;;;;14.40;99.90;;;;;;4998468;28;20016;-43
2023/09/19 03:18:44;;;;;;;;;;;14.50;99.90;;;;;;4998286;28;19959;-43
2023/09/19 03:21:10;;;;;;;;;;;14.50;99.90;;;;;;4998198;28;19922;-42
2023/09/19 03:23:36;;;;;;;;;;;14.50;99.90;;;;;;4998189;28;19945;-43
2023/09/19 03:26:01;;;;;;;;;;;14.50;99.90;;;;;;4998310;28;19928;-43
2023/09/19 03:28:27;;;;;;;;;;;14.50;99.90;;;;;;4998233;28;19968;-43
2023/09/19 03:31:03;;;;;;;;;;;14.50;99.90;;;;;;4998087;28;19948;-43
2023/09/19 03:33:28;;;;;;;;;;;14.50;99.90;;;;;;4998070;28;19944;-43
2023/09/19 03:35:54;;;;;;;;;;;14.50;99.90;;;;;;4997865;28;20374;-44
2023/09/19 03:38:21;;;;;;;;;;;14.50;99.90;;;;;;4997744;28;20020;-43
2023/09/19 03:40:47;;;;;;;;;;;14.50;99.90;;;;;;4997877;28;20378;-43
2023/09/19 03:43:13;;;;;;;;;;;14.50;99.90;;;;;;4997820;28;20432;-43
2023/09/19 03:45:38;;;;;;;;;;;14.50;99.90;;;;;;4997873;28;19922;-44
2023/09/19 03:48:10;;;;;;;;;;;14.50;99.90;;;;;;4997779;28;20294;-43
2023/09/19 03:50:36;;;;;;;;;;;14.50;99.90;;;;;;4997764;28;19922;-43
2023/09/19 03:53:02;;;;;;;;;;;14.40;99.90;;;;;;4997943;28;19921;-43
2023/09/19 03:55:28;;;;;;;;;;;14.40;99.90;;;;;;4997781;28;19968;-43
2023/09/19 03:57:53;;;;;;;;;;;14.40;99.90;;;;;;4997609;28;20016;-43
2023/09/19 04:00:21;;;;;;;;;;;14.40;99.90;;;;;;4997495;28;20387;-43
2023/09/19 04:02:51;;;;;;;;;;;14.40;99.90;;;;;;4997513;28;20060;-43
2023/09/19 04:05:17;;;;;;;;;;;14.30;99.90;;;;;;4997273;28;19929;-43
2023/09/19 04:07:42;;;;;;;;;;;14.30;99.90;;;;;;4997599;28;19921;-43
2023/09/19 04:10:10;;;;;;;;;;;14.30;99.90;;;;;;4997244;28;20338;-43
2023/09/19 04:12:35;;;;;;;;;;;14.20;99.90;;;;;;4997353;28;20020;-43
2023/09/19 04:15:01;;;;;;;;;;;14.20;99.90;;;;;;4997235;28;20450;-42
2023/09/19 04:17:26;;;;;;;;;;;14.20;99.90;;;;;;4997053;28;20405;-43
2023/09/19 04:19:53;;;;;;;;;;;14.20;99.90;;;;;;4997203;28;20370;-43
2023/09/19 04:22:18;;;;;;;;;;;14.20;99.90;;;;;;4979061;28;19922;-43
2023/09/19 04:24:44;;;;;;;;;;;14.20;99.90;;;;;;4997298;28;19921;-43
2023/09/19 04:27:10;;;;;;;;;;;14.20;99.90;;;;;;4997210;28;19928;-43
2023/09/19 04:29:35;;;;;;;;;;;14.20;99.90;;;;;;4997054;28;20260;-43
2023/09/19 04:32:04;;;;;;;;;;;14.20;99.90;;;;;;4997176;28;19921;-42
2023/09/19 04:34:30;;;;;;;;;;;14.20;99.90;;;;;;4996873;28;19922;-42
2023/09/19 04:36:58;;;;;;;;;;;14.20;99.90;;;;;;4996913;28;19921;-43
2023/09/19 04:39:25;;;;;;;;;;;14.20;99.90;;;;;;4996856;28;19976;-44
2023/09/19 04:41:52;;;;;;;;;;;14.20;99.90;;;;;;4996935;28;19929;-43
2023/09/19 04:44:18;;;;;;;;;;;14.20;99.90;;;;;;4996904;28;19921;-42
2023/09/19 04:46:44;;;;;;;;;;;14.20;99.90;;;;;;4996715;28;19928;-43
2023/09/19 04:49:09;;;;;;;;;;;14.20;99.90;;;;;;4996440;28;19929;-43
2023/09/19 04:51:36;;;;;;;;;;;14.20;99.90;;;;;;5012027;28;20266;-43
2023/09/19 04:54:02;;;;;;;;;;;14.20;99.90;;;;;;4996692;28;19922;-43
2023/09/19 04:56:32;;;;;;;;;;;14.20;99.90;;;;;;4979538;28;19922;-43
2023/09/19 04:58:58;;;;;;;;;;;14.20;99.90;;;;;;4996551;28;20017;-43
2023/09/19 05:01:24;;;;;;;;;;;14.20;99.90;;;;;;4996471;28;19921;-43
2023/09/19 05:03:52;;;;;;;;;;;14.20;99.90;;;;;;4996277;28;19948;-42
2023/09/19 05:06:21;;;;;;;;;;;14.20;99.90;;;;;;4996422;28;19922;-43
2023/09/19 05:08:50;;;;;;;;;;;14.20;99.90;;;;;;4996375;28;19980;-43
2023/09/19 05:11:21;;;;;;;;;;;14.20;99.90;;;;;;4996583;28;19922;-43
2023/09/19 05:13:47;;;;;;;;;;;14.20;99.90;;;;;;4996272;28;19922;-44
2023/09/19 05:16:13;;;;;;;;;;;14.20;99.90;;;;;;4996262;28;19928;-43
2023/09/19 05:18:38;;;;;;;;;;;14.20;99.90;;;;;;4996343;28;19922;-43
2023/09/19 05:21:04;;;;;;;;;;;14.20;99.90;;;;;;4979097;28;20013;-43
2023/09/19 05:23:29;;;;;;;;;;;14.30;99.90;;;;;;4996150;28;19961;-43
2023/09/19 05:25:56;;;;;;;;;;;14.20;99.90;;;;;;4995999;28;20016;-43
2023/09/19 05:28:23;;;;;;;;;;;14.30;99.90;;;;;;4996091;28;20290;-43
2023/09/19 05:30:48;;;;;;;;;;;14.30;99.90;;;;;;4995863;28;19922;-43
2023/09/19 05:33:14;;;;;;;;;;;14.20;99.90;;;;;;4978572;28;19928;-43
2023/09/19 05:35:41;;;;;;;;;;;14.30;99.90;;;;;;4995936;28;19921;-43
2023/09/19 05:38:08;;;;;;;;;;;14.30;99.90;;;;;;4978456;28;20362;-42
2023/09/19 05:40:35;;;;;;;;;;;14.30;99.90;;;;;;4996060;28;20286;-42
2023/09/19 05:43:00;;;;;;;;;;;14.30;99.90;;;;;;4995536;28;20263;-42
2023/09/19 05:45:27;;;;;;;;;;;14.30;99.90;;;;;;4995547;28;19928;-42
2023/09/19 05:47:55;;;;;;;;;;;14.30;99.90;;;;;;4995735;28;19947;-42
2023/09/19 05:50:21;;;;;;;;;;;14.40;99.90;;;;;;4995600;28;20016;-42
2023/09/19 05:52:53;;;;;;;;;;;14.40;99.90;;;;;;4995567;28;19964;-43
2023/09/19 05:55:20;;;;;;;;;;;14.40;99.90;;;;;;4995468;28;19925;-42
2023/09/19 05:57:50;;;;;;;;;;;14.40;99.90;;;;;;4995632;28;19929;-42
2023/09/19 06:00:17;;;;;;;;;;;14.40;99.90;;;;;;4995341;28;20359;-41
2023/09/19 06:02:44;;;;;;;;;;;14.40;99.90;;;;;;4977891;28;19944;-42
2023/09/19 06:05:10;;;;;;;;;;;14.40;99.90;;;;;;4995402;28;19921;-42
2023/09/19 06:07:37;;;;;;;;;;;14.40;99.90;;;;;;4995215;28;19928;-42
2023/09/19 06:10:07;;;;;;;;;;;14.40;99.90;;;;;;4978052;28;19932;-42
2023/09/19 06:12:37;;;;;;;;;;;14.40;99.90;;;;;;4977665;28;19925;-42
2023/09/19 06:15:03;;;;;;;;;;;14.40;99.90;;;;;;4995216;28;19926;-42
2023/09/19 06:17:30;;;;;;;;;;;14.40;99.90;;;;;;4995077;28;20370;-42
2023/09/19 06:19:56;;;;;;;;;;;14.50;99.90;;;;;;4995132;28;19922;-42
2023/09/19 06:22:22;;;;;;;;;;;14.50;99.90;;;;;;4994996;28;20370;-42
2023/09/19 06:24:48;;;;;;;;;;;14.50;99.90;;;;;;4995078;28;19928;-42
2023/09/19 06:27:13;;;;;;;;;;;14.50;99.90;;;;;;4977607;28;19926;-42
2023/09/19 06:29:39;;;;;;;;;;;14.50;99.90;;;;;;4994934;28;19933;-42
2023/09/19 06:32:08;;;;;;;;;;;14.50;99.90;;;;;;4995023;28;19928;-42
2023/09/19 06:34:34;;;;;;;;;;;14.50;99.90;;;;;;4994738;28;19922;-42
2023/09/19 06:37:00;;;;;;;;;;;14.50;99.90;;;;;;4994783;28;19928;-42
2023/09/19 06:39:25;;;;;;;;;;;14.60;99.90;;;;;;4994758;28;19968;-42
2023/09/19 06:41:53;;;;;;;;;;;14.60;99.90;;;;;;4994515;28;19928;-43
2023/09/19 06:44:20;;;;;;;;;;;14.60;99.90;;;;;;4994632;28;19976;-42
2023/09/19 06:46:51;;;;;;;;;;;14.60;99.90;;;;;;4994692;28;19925;-42
2023/09/19 06:49:17;;;;;;;;;;;14.60;99.90;;;;;;4994969;28;19922;-42
2023/09/19 06:51:43;;;;;;;;;;;14.70;99.90;;;;;;4994642;28;20363;-42
2023/09/19 06:54:09;;;;;;;;;;;14.70;99.90;;;;;;4994475;28;19922;-42
2023/09/19 06:56:35;;;;;;;;;;;14.70;99.90;;;;;;4994660;28;19928;-42
2023/09/19 06:59:02;;;;;;;;;;;14.70;99.90;;;;;;4994256;28;19929;-42
2023/09/19 07:01:28;;;;;;;;;;;14.70;99.90;;;;;;4994547;28;20382;-42
2023/09/19 07:03:54;;;;;;;;;;;14.80;99.90;;;;;;4994531;28;19921;-42
2023/09/19 07:06:20;;;;;;;;;;;14.80;99.90;;;;;;4994513;28;19922;-42
2023/09/19 07:08:45;;;;;;;;;;;14.80;99.90;;;;;;4994282;28;19921;-42
2023/09/19 07:11:12;;;;;;;;;;;14.80;99.90;;;;;;4994268;28;19926;-43
2023/09/19 07:13:38;;;;;;;;;;;14.90;99.90;;;;;;4994385;28;19969;-42
2023/09/19 07:16:04;;;;;;;;;;;14.90;99.90;;;;;;4994332;28;19981;-42
2023/09/19 07:18:29;;;;;;;;;;;14.90;99.90;;;;;;4993909;28;20011;-42
2023/09/19 07:21:04;;;;;;;;;;;14.90;99.90;;;;;;4994401;28;20041;-42
2023/09/19 07:23:34;;;;;;;;;;;14.90;99.90;;;;;;4994246;28;19925;-42
2023/09/19 07:26:00;;;;;;;;;;;15.00;99.90;;;;;;4994676;28;20286;-42
2023/09/19 07:28:26;;;;;;;;;;;15.00;99.90;;;;;;4977169;28;19922;-42
2023/09/19 07:30:52;;;;;;;;;;;15.00;99.90;;;;;;4994282;28;20420;-43
2023/09/19 07:33:18;;;;;;;;;;;15.00;99.90;;;;;;4994276;28;19944;-42
2023/09/19 07:35:47;;;;;;;;;;;15.00;99.90;;;;;;5009461;28;20367;-45
2023/09/19 07:38:13;;;;;;;;;;;15.00;99.90;;;;;;4994088;28;20375;-42
2023/09/19 07:40:39;;;;;;;;;;;15.10;99.90;;;;;;4994203;28;19929;-42
2023/09/19 07:43:06;;;;;;;;;;;15.10;99.90;;;;;;4994195;28;19929;-42
2023/09/19 07:45:32;;;;;;;;;;;15.10;99.90;;;;;;4977129;28;19972;-42
2023/09/19 07:47:57;;;;;;;;;;;15.10;99.90;;;;;;4994169;28;20020;-41
2023/09/19 07:50:23;;;;;;;;;;;15.10;99.90;;;;;;4994070;28;19929;-42
2023/09/19 07:52:52;;;;;;;;;;;15.10;99.90;;;;;;4993908;28;19922;-42
2023/09/19 07:55:19;;;;;;;;;;;15.20;99.90;;;;;;4994178;28;19922;-42
2023/09/19 07:57:45;;;;;;;;;;;15.20;99.90;;;;;;4997397;28;19922;-42
2023/09/19 08:00:11;;;;;;;;;;;15.20;99.90;;;;;;4997733;28;19928;-42
2023/09/19 08:02:38;;;;;;;;;;;15.30;99.90;;;;;;4997568;28;20363;-42
2023/09/19 08:05:06;;;;;;;;;;;15.30;99.90;;;;;;4997489;28;20037;-42
2023/09/19 08:07:32;;;;;;;;;;;15.30;99.90;;;;;;4997564;28;19927;-42
2023/09/19 08:09:58;;;;;;;;;;;15.30;99.90;;;;;;4997484;28;20029;-42
2023/09/19 08:12:24;;;;;;;;;;;15.30;99.90;;;;;;4997418;28;19921;-42
2023/09/19 08:14:50;;;;;;;;;;;15.30;99.90;;;;;;4997278;28;20433;-42
2023/09/19 08:17:16;;;;;;;;;;;15.30;99.90;;;;;;4997197;28;19968;-42
2023/09/19 08:19:44;;;;;;;;;;;15.40;99.90;;;;;;4980035;28;20365;-42
2023/09/19 08:22:10;;;;;;;;;;;15.40;99.90;;;;;;4997601;28;20016;-42
2023/09/19 08:24:36;;;;;;;;;;;15.40;99.90;;;;;;4997266;28;19922;-42
2023/09/19 08:27:04;;;;;;;;;;;15.50;99.90;;;;;;4997167;28;19922;-42
2023/09/19 08:29:30;;;;;;;;;;;15.60;99.90;;;;;;4997276;28;19926;-43
2023/09/19 08:31:56;;;;;;;;;;;15.60;99.90;;;;;;4997027;28;19922;-42
2023/09/19 08:34:23;;;;;;;;;;;15.60;99.90;;;;;;4996887;28;19926;-43
2023/09/19 08:36:50;;;;;;;;;;;15.60;99.90;;;;;;4997000;28;19921;-42
2023/09/19 08:39:16;;;;;;;;;;;15.70;99.90;;;;;;4996951;28;19929;-42
2023/09/19 08:41:42;;;;;;;;;;;15.70;99.90;;;;;;4996913;28;19925;-43
2023/09/19 08:44:10;;;;;;;;;;;15.80;99.90;;;;;;4996811;28;20390;-43
2023/09/19 08:46:38;;;;;;;;;;;15.80;99.90;;;;;;4996619;28;20409;-43
2023/09/19 08:49:07;;;;;;;;;;;15.90;99.90;;;;;;4996600;28;19922;-43
2023/09/19 08:51:50;;;;;;;;;;;16.00;99.90;;;;;;4996778;28;19979;-42
2023/09/19 08:54:29;;;;;;;;;;;16.00;99.90;;;;;;4996820;28;19926;-41
2023/09/19 08:56:56;;;;;;;;;;;16.00;99.90;;;;;;4996591;28;19929;-42
2023/09/19 08:59:26;;;;;;;;;;;16.10;99.90;;;;;;4996417;28;20320;-42
2023/09/19 09:01:55;;;;;;;;;;;16.10;99.90;;;;;;4996595;28;19926;-42
2023/09/19 09:04:22;;;;;;;;;;;16.10;99.90;;;;;;4996668;28;19921;-42
2023/09/19 09:06:52;;;;;;;;;;;16.10;99.90;;;;;;4997024;28;20252;-42
2023/09/19 09:09:18;;;;;;;;;;;16.10;99.90;;;;;;4995736;28;20370;-42
2023/09/19 09:11:44;;;;;;;;;;;16.10;99.90;;;;;;4996199;28;20009;-42
2023/09/19 09:14:11;;;;;;;;;;;16.10;99.90;;;;;;4996354;28;20012;-42
2023/09/19 09:16:36;;;;;;;;;;;16.10;99.90;;;;;;4996112;28;19921;-41
2023/09/19 09:19:02;;;;;;;;;;;16.10;99.90;;;;;;4996206;28;20041;-42
2023/09/19 09:21:28;;;;;;;;;;;16.10;99.90;;;;;;4979041;28;19922;-42
2023/09/19 09:23:54;;;;;;;;;;;16.10;99.90;;;;;;4996039;28;19976;-42
2023/09/19 09:26:43;;;;;;;;;;;16.10;99.90;;;;;;5011376;28;19921;-42
2023/09/19 09:29:08;;;;;;;;;;;16.20;99.90;;;;;;4988071;28;19928;-42
2023/09/19 09:31:34;;;;;;;;;;;16.20;99.90;;;;;;4995954;28;20298;-42
2023/09/19 09:34:00;;;;;;;;;;;16.20;99.90;;;;;;4995952;28;19922;-42
2023/09/19 09:36:34;;;;;;;;;;;16.30;99.90;;;;;;4995744;28;19922;-42
2023/09/19 09:39:15;;;;;;;;;;;16.30;99.90;;;;;;4995536;28;19930;-42
2023/09/19 09:41:40;;;;;;;;;;;16.30;99.90;;;;;;4995574;28;19925;-42
2023/09/19 09:44:14;;;;;;;;;;;16.40;99.90;;;;;;4995811;28;20306;-43
2023/09/19 09:52:07;;;;;;;;;;;16.50;99.90;;;;;;4995634;28;19926;-43
2023/09/19 09:54:36;;;;;;;;;;;16.50;99.90;;;;;;4995588;28;19976;-42
2023/09/19 09:57:13;;;;;;;;;;;16.50;99.90;;;;;;4995441;28;19929;-42
2023/09/19 09:59:46;;;;;;;;;;;16.50;99.90;;;;;;4995626;28;20076;-41
2023/09/19 10:02:13;;;;;;;;;;;16.50;99.90;;;;;;4995134;28;19925;-42
2023/09/19 10:04:51;;;;;;;;;;;16.50;99.90;;;;;;4995373;28;19921;-42
2023/09/19 10:07:32;;;;;;;;;;;16.60;99.90;;;;;;4995339;28;19922;-43
2023/09/19 10:10:09;;;;;;;;;;;16.70;99.90;;;;;;4978029;28;19928;-42
2023/09/19 10:12:38;;;;;;;;;;;16.80;99.90;;;;;;4995249;28;19929;-42
2023/09/19 10:15:06;;;;;;;;;;;16.90;99.90;;;;;;4995318;28;20286;-42
2023/09/19 10:17:34;;;;;;;;;;;17.00;99.90;;;;;;4994908;28;19921;-42
2023/09/19 10:20:09;;;;;;;;;;;17.10;99.90;;;;;;4994260;28;19921;-42
2023/09/19 10:22:35;;;;;;;;;;;17.20;99.90;;;;;;4994974;28;20371;-42
2023/09/19 10:25:03;;;;;;;;;;;17.30;99.90;;;;;;4994865;28;20345;-42
2023/09/19 10:27:29;;;;;;;;;;;17.40;99.90;;;;;;4995159;28;19965;-44
2023/09/19 10:29:56;;;;;;;;;;;17.50;99.90;;;;;;4994853;28;19929;-43
2023/09/19 10:32:23;;;;;;;;;;;17.50;99.90;;;;;;4977937;28;19926;-42
2023/09/19 10:34:49;;;;;;;;;;;17.40;99.90;;;;;;4994725;28;19928;-43
2023/09/19 10:37:22;;;;;;;;;;;17.40;99.90;;;;;;4994594;28;19921;-42
2023/09/19 10:39:48;;;;;;;;;;;17.40;99.90;;;;;;4977819;28;19922;-41
2023/09/19 10:42:17;;;;;;;;;;;17.30;99.90;;;;;;4995205;28;19922;-42
2023/09/19 10:44:44;;;;;;;;;;;17.30;99.90;;;;;;4977563;28;19967;-41
2023/09/19 10:47:11;;;;;;;;;;;17.30;99.90;;;;;;4977691;28;19983;-42
2023/09/19 10:49:46;;;;;;;;;;;17.30;99.90;;;;;;4994566;28;20314;-44
2023/09/19 10:52:18;;;;;;;;;;;17.50;99.90;;;;;;4995155;28;19987;-41
2023/09/19 10:54:47;;;;;;;;;;;17.60;99.90;;;;;;4995010;28;19928;-43
2023/09/19 10:57:16;;;;;;;;;;;17.60;99.90;;;;;;4994518;28;20387;-44
2023/09/19 11:00:21;;;;;;;;;;;17.70;99.90;;;;;;4994777;28;19922;-43
2023/09/19 11:03:06;;;;;;;;;;;17.60;99.90;;;;;;4994505;28;19977;-44
2023/09/19 11:05:32;;;;;;;;;;;17.60;99.90;;;;;;5009938;28;20325;-43
2023/09/19 11:08:03;;;;;;;;;;;17.60;99.90;;;;;;4994531;28;19921;-42
2023/09/19 11:10:46;;;;;;;;;;;17.60;99.90;;;;;;4994581;28;19929;-42
2023/09/19 11:13:44;;;;;;;;;;;17.70;99.90;;;;;;4995025;28;19929;-43
2023/09/19 11:16:19;;;;;;;;;;;17.80;99.90;;;;;;4965726;28;20012;-43
2023/09/19 11:18:45;;;;;;;;;;;17.70;99.90;;;;;;4994395;28;19976;-43
2023/09/19 11:21:32;;;;;;;;;;;17.70;99.90;;;;;;4994276;28;20009;-42
2023/09/19 11:24:09;;;;;;;;;;;17.70;99.90;;;;;;4994447;28;20370;-43
2023/09/19 11:26:47;;;;;;;;;;;17.70;99.90;;;;;;4994384;28;19921;-42
2023/09/19 11:29:26;;;;;;;;;;;17.70;99.90;;;;;;4994497;28;19932;-42
2023/09/19 11:31:55;;;;;;;;;;;17.70;99.90;;;;;;4996351;28;19929;-42
2023/09/19 11:34:36;;;;;;;;;;;17.70;99.90;;;;;;4998143;28;19922;-43
2023/09/19 11:37:21;;;;;;;;;;;17.70;99.90;;;;;;4998091;28;19921;-43
2023/09/19 11:40:09;;;;;;;;;;;17.70;99.90;;;;;;4967426;28;19922;-43
2023/09/19 11:42:53;;;;;;;;;;;17.60;99.90;;;;;;4998016;28;20009;-42
2023/09/19 11:45:37;;;;;;;;;;;17.60;99.90;;;;;;4998154;28;20016;-44
2023/09/19 11:48:06;;;;;;;;;;;17.60;99.90;;;;;;4997781;28;19933;-43
2023/09/19 11:50:32;;;;;;;;;;;17.70;99.90;;;;;;4980637;28;19928;-42
2023/09/19 11:52:58;;;;;;;;;;;17.70;99.90;;;;;;4980627;28;20367;-42
2023/09/19 11:55:25;;;;;;;;;;;17.70;99.90;;;;;;4997619;28;19921;-42
2023/09/19 11:57:54;;;;;;;;;;;17.70;99.90;;;;;;4997747;28;19983;-42
2023/09/19 12:00:21;;;;;;;;;;;17.70;99.90;;;;;;4997531;28;19922;-41
2023/09/19 12:02:47;;;;;;;;;;;17.70;99.90;;;;;;4980582;28;19922;-46
2023/09/19 12:05:12;;;;;;;;;;;17.70;99.90;;;;;;4997574;28;19925;-42
2023/09/19 12:07:47;;;;;;;;;;;17.70;99.90;;;;;;4997776;28;20016;-43
2023/09/19 12:10:17;;;;;;;;;;;17.70;99.90;;;;;;4997823;28;20302;-42
2023/09/19 12:12:47;;;;;;;;;;;17.70;99.90;;;;;;4997435;28;20056;-43
2023/09/19 12:15:14;;;;;;;;;;;17.60;99.90;;;;;;4997532;28;19925;-42
2023/09/19 12:17:43;;;;;;;;;;;17.60;99.90;;;;;;4979637;28;19922;-42
2023/09/19 12:20:17;;;;;;;;;;;17.50;99.90;;;;;;4979949;28;19922;-42
2023/09/19 12:22:46;;;;;;;;;;;17.50;99.90;;;;;;4997384;28;20024;-42
2023/09/19 12:25:12;;;;;;;;;;;17.50;99.90;;;;;;4997236;28;19969;-43
2023/09/19 12:27:43;;;;;;;;;;;17.50;99.90;;;;;;4997136;28;19922;-42
2023/09/19 12:30:09;;;;;;;;;;;17.50;99.90;;;;;;4997142;28;20379;-43
2023/09/19 12:32:36;;;;;;;;;;;17.50;99.90;;;;;;4997165;28;19926;-42
2023/09/19 12:35:07;;;;;;;;;;;17.50;99.90;;;;;;4997066;28;20350;-41
2023/09/19 12:37:35;;;;;;;;;;;17.50;99.90;;;;;;4996958;28;20314;-41
2023/09/19 12:40:17;;;;;;;;;;;17.50;99.90;;;;;;4997136;28;19922;-43
2023/09/19 12:42:44;;;;;;;;;;;17.50;99.90;;;;;;4995699;28;20330;-43
2023/09/19 12:45:10;;;;;;;;;;;17.40;99.90;;;;;;4996939;28;19921;-43
2023/09/19 12:47:37;;;;;;;;;;;17.30;99.90;;;;;;4996847;28;20008;-42
2023/09/19 12:50:13;;;;;;;;;;;17.30;99.90;;;;;;4996793;28;20021;-42
2023/09/19 12:52:39;;;;;;;;;;;17.30;99.90;;;;;;4996769;28;19928;-44
2023/09/19 12:55:06;;;;;;;;;;;17.30;99.90;;;;;;4996463;28;20012;-42
2023/09/19 12:57:34;;;;;;;;;;;17.30;99.90;;;;;;4996601;28;19988;-41
2023/09/19 13:00:01;;;;;;;;;;;17.40;99.90;;;;;;4996590;28;19976;-42
2023/09/19 13:02:28;;;;;;;;;;;17.40;99.90;;;;;;4996970;28;19925;-41
2023/09/19 13:04:54;;;;;;;;;;;17.50;99.90;;;;;;4996493;28;19967;-43
2023/09/19 13:07:38;;;;;;;;;;;17.50;99.90;;;;;;4996372;28;19921;-43
2023/09/19 13:10:04;;;;;;;;;;;17.50;99.90;;;;;;4996547;28;19926;-42
2023/09/19 13:12:42;;;;;;;;;;;17.50;99.90;;;;;;4996367;28;19922;-42
2023/09/19 13:15:13;;;;;;;;;;;17.50;99.90;;;;;;4996420;28;19968;-42
2023/09/19 13:17:48;;;;;;;;;;;17.50;99.90;;;;;;4996120;28;19921;-42
2023/09/19 13:20:24;;;;;;;;;;;17.50;99.90;;;;;;4995950;28;20386;-42
2023/09/19 13:22:53;;;;;;;;;;;17.50;99.90;;;;;;4996677;28;20294;-42
2023/09/19 13:25:19;;;;;;;;;;;17.50;99.90;;;;;;4996028;28;19969;-42
2023/09/19 13:27:45;;;;;;;;;;;17.50;99.90;;;;;;4996190;28;20289;-43
2023/09/19 13:30:12;;;;;;;;;;;17.60;99.90;;;;;;4995863;28;20013;-42
2023/09/19 13:32:39;;;;;;;;;;;17.60;99.90;;;;;;4995779;28;20027;-42
2023/09/19 13:35:05;;;;;;;;;;;17.50;99.90;;;;;;4995983;28;19922;-42
2023/09/19 13:37:30;;;;;;;;;;;17.40;99.90;;;;;;4996138;28;19945;-42
2023/09/19 13:39:57;;;;;;;;;;;17.40;99.90;;;;;;4995935;28;20012;-41
2023/09/19 13:42:24;;;;;;;;;;;17.30;99.90;;;;;;5010979;28;19925;-41
2023/09/19 13:44:50;;;;;;;;;;;17.30;99.90;;;;;;4995676;28;19921;-42
2023/09/19 13:47:16;;;;;;;;;;;17.20;99.90;;;;;;4995536;28;20394;-42
2023/09/19 13:49:42;;;;;;;;;;;17.20;99.90;;;;;;4995954;28;19926;-42
2023/09/19 13:52:08;;;;;;;;;;;17.20;99.90;;;;;;4995585;28;19973;-41
2023/09/19 13:54:34;;;;;;;;;;;17.20;99.90;;;;;;4995376;28;19929;-41
2023/09/19 13:57:00;;;;;;;;;;;17.30;99.90;;;;;;4978312;28;19921;-42
2023/09/19 13:59:28;;;;;;;;;;;17.30;99.90;;;;;;4995406;28;19921;-42
2023/09/19 14:01:54;;;;;;;;;;;17.30;99.90;;;;;;4995393;28;19921;-42
2023/09/19 14:04:21;;;;;;;;;;;17.30;99.90;;;;;;5010890;28;19971;-42
2023/09/19 14:06:47;;;;;;;;;;;17.40;99.90;;;;;;4995170;28;19922;-42
2023/09/19 14:09:13;;;;;;;;;;;17.40;99.90;;;;;;4995250;28;20303;-41
2023/09/19 14:11:39;;;;;;;;;;;17.50;99.90;;;;;;4995405;28;19928;-42
2023/09/19 14:14:05;;;;;;;;;;;17.50;99.90;;;;;;4995043;28;19929;-41
2023/09/19 14:16:32;;;;;;;;;;;17.50;99.90;;;;;;4994819;28;19922;-42
2023/09/19 14:18:58;;;;;;;;;;;17.60;99.90;;;;;;4995490;28;19922;-42
2023/09/19 14:21:23;;;;;;;;;;;17.60;99.90;;;;;;4995086;28;19922;-42
2023/09/19 14:23:49;;;;;;;;;;;17.60;99.90;;;;;;4995073;28;20275;-42
2023/09/19 14:26:16;;;;;;;;;;;17.70;99.90;;;;;;4995420;28;19953;-41
2023/09/19 14:28:42;;;;;;;;;;;17.70;99.90;;;;;;4994753;28;20448;-41
2023/09/19 14:31:08;;;;;;;;;;;17.80;99.90;;;;;;4994767;28;20010;-40